createdAt,value
2022-12-14T00:01:12.328Z,12.30
2022-12-14T00:05:19.851Z,12.90
2022-12-14T00:09:26.519Z,13.17
2022-12-14T00:13:33.727Z,12.50
2022-12-14T00:17:40.461Z,10.97
2022-12-14T00:21:47.225Z,12.10
2022-12-14T00:25:53.860Z,13.57
2022-12-14T00:30:00.532Z,12.17
2022-12-14T00:34:07.215Z,12.17
2022-12-14T00:38:13.909Z,11.43
2022-12-14T00:42:20.560Z,11.73
2022-12-14T00:46:27.293Z,11.53
2022-12-14T00:50:33.971Z,11.37
2022-12-14T00:54:40.674Z,11.67
2022-12-14T00:58:51.800Z,11.37
2022-12-14T01:02:58.652Z,11.87
2022-12-14T01:07:05.372Z,12.13
2022-12-14T01:11:13.008Z,11.80
2022-12-14T01:15:19.705Z,11.43
2022-12-14T01:19:26.404Z,13.00
2022-12-14T01:23:33.071Z,11.87
2022-12-14T01:27:39.756Z,11.17
2022-12-14T01:31:48.687Z,11.13
2022-12-14T01:35:55.798Z,12.17
2022-12-14T01:40:03.337Z,11.33
2022-12-14T01:44:10.133Z,10.30
2022-12-14T01:48:16.841Z,10.37
2022-12-14T01:52:47.061Z,10.50
2022-12-14T01:56:54.329Z,10.83
2022-12-14T02:01:02.538Z,10.90
2022-12-14T02:05:11.092Z,11.30
2022-12-14T02:09:21.490Z,12.03
2022-12-14T02:13:34.111Z,10.63
2022-12-14T02:17:43.900Z,10.27
2022-12-14T02:22:19.932Z,9.60
2022-12-14T02:26:48.463Z,9.40
2022-12-14T02:31:14.682Z,10.77
2022-12-14T02:35:44.211Z,10.80
2022-12-14T02:40:07.991Z,10.13
2022-12-14T02:44:36.510Z,9.83
2022-12-14T02:49:11.385Z,9.73
2022-12-14T02:54:04.520Z,9.57
2022-12-14T02:58:17.509Z,8.93
2022-12-14T03:02:25.442Z,10.10
2022-12-14T03:06:32.448Z,10.07
2022-12-14T03:10:56.537Z,10.93
2022-12-14T03:15:04.974Z,9.37
2022-12-14T03:19:23.683Z,10.33
2022-12-14T03:23:34.981Z,9.93
2022-12-14T03:27:49.767Z,10.00
2022-12-14T03:32:07.424Z,9.07
2022-12-14T03:36:25.615Z,9.93
2022-12-14T03:40:51.151Z,9.57
2022-12-14T03:45:12.290Z,10.67
2022-12-14T03:49:30.358Z,9.40
2022-12-14T03:53:55.834Z,9.00
2022-12-14T03:58:39.198Z,9.27
2022-12-14T04:03:09.203Z,9.03
2022-12-14T04:07:33.922Z,9.60
2022-12-14T04:12:08.781Z,8.87
2022-12-14T04:16:38.967Z,8.80
2022-12-14T04:20:57.773Z,9.20
2022-12-14T04:25:28.013Z,9.60
2022-12-14T04:29:54.771Z,9.17
2022-12-14T04:34:04.876Z,9.23
2022-12-14T04:38:23.734Z,9.20
2022-12-14T04:42:35.670Z,7.90
2022-12-14T04:46:44.321Z,7.13
2022-12-14T04:51:07.275Z,8.67
2022-12-14T04:55:29.883Z,8.93
2022-12-14T04:59:37.399Z,8.73
2022-12-14T05:03:56.274Z,9.53
2022-12-14T05:08:09.944Z,8.87
2022-12-14T05:12:23.529Z,8.37
2022-12-14T05:16:30.394Z,8.47
2022-12-14T05:20:37.157Z,8.67
2022-12-14T05:24:43.853Z,9.60
2022-12-14T05:28:50.702Z,8.37
2022-12-14T05:32:57.769Z,7.80
2022-12-14T05:37:04.480Z,8.10
2022-12-14T05:41:11.156Z,8.17
2022-12-14T05:45:17.913Z,8.27
2022-12-14T05:49:25.267Z,8.27
2022-12-14T05:53:31.937Z,7.90
2022-12-14T05:57:38.614Z,7.60
2022-12-14T06:01:49.524Z,7.43
2022-12-14T06:06:08.566Z,7.23
2022-12-14T06:10:15.332Z,7.07
2022-12-14T06:14:24.167Z,8.37
2022-12-14T06:18:30.837Z,8.90
2022-12-14T06:22:40.441Z,8.60
2022-12-14T06:26:49.491Z,9.00
2022-12-14T06:30:56.217Z,9.03
2022-12-14T06:35:03.022Z,9.27
2022-12-14T06:39:16.415Z,8.27
2022-12-14T06:43:26.479Z,7.97
2022-12-14T06:47:34.575Z,8.97
2022-12-14T06:51:42.494Z,8.43
2022-12-14T06:55:49.208Z,8.93
2022-12-14T06:59:56.215Z,8.57
2022-12-14T07:04:03.360Z,8.63
2022-12-14T07:08:10.021Z,8.70
2022-12-14T07:12:16.705Z,8.83
2022-12-14T07:16:26.843Z,10.23
2022-12-14T07:20:33.689Z,8.80
2022-12-14T07:24:40.722Z,9.13
2022-12-14T07:28:47.774Z,8.97
2022-12-14T07:32:54.462Z,9.23
2022-12-14T07:37:01.455Z,9.03
2022-12-14T07:41:10.872Z,9.70
2022-12-14T07:45:17.545Z,9.43
2022-12-14T07:49:24.214Z,10.00
2022-12-14T07:53:31.345Z,10.13
2022-12-14T07:57:38.088Z,10.93
2022-12-14T08:01:45.150Z,11.57
2022-12-14T08:05:51.965Z,11.80
2022-12-14T08:09:58.696Z,11.13
2022-12-14T08:14:08.418Z,10.37
2022-12-14T08:18:15.064Z,11.33
2022-12-14T08:22:21.747Z,11.47
2022-12-14T08:26:34.992Z,11.53
2022-12-14T08:30:42.379Z,10.57
2022-12-14T08:34:49.035Z,10.83
2022-12-14T08:39:06.649Z,11.30
2022-12-14T08:43:13.333Z,10.73
2022-12-14T08:47:20.304Z,9.10
2022-12-14T08:51:28.467Z,10.87
2022-12-14T08:55:38.669Z,9.93
2022-12-14T09:00:01.445Z,12.20
2022-12-14T09:04:08.930Z,10.20
2022-12-14T09:08:15.588Z,12.47
2022-12-14T09:12:22.246Z,11.03
2022-12-14T09:16:29.059Z,11.93
2022-12-14T09:20:35.977Z,12.20
2022-12-14T09:24:42.714Z,10.83
2022-12-14T09:28:54.820Z,12.37
2022-12-14T09:33:01.492Z,9.80
2022-12-14T09:37:08.336Z,12.17
2022-12-14T09:41:23.818Z,11.83
2022-12-14T09:45:34.146Z,11.67
2022-12-14T09:50:07.120Z,11.80
2022-12-14T09:54:18.259Z,11.48
2022-12-14T09:58:30.422Z,10.93
2022-12-14T10:02:43.197Z,11.73
2022-12-14T10:06:57.812Z,10.77
2022-12-14T10:11:19.323Z,10.87
2022-12-14T10:16:00.883Z,10.40
2022-12-14T10:20:36.929Z,9.40
2022-12-14T10:24:47.279Z,9.53
2022-12-14T10:29:11.649Z,8.77
2022-12-14T10:33:26.811Z,9.47
2022-12-14T10:37:37.439Z,8.87
2022-12-14T10:41:51.237Z,9.13
2022-12-14T10:46:01.055Z,9.07
2022-12-14T10:50:34.453Z,8.57
2022-12-14T10:54:55.480Z,8.10
2022-12-14T10:59:17.551Z,9.67
2022-12-14T11:03:24.488Z,8.10
2022-12-14T11:07:34.209Z,8.80
2022-12-14T11:11:41.656Z,8.67
2022-12-14T11:15:53.009Z,8.43
2022-12-14T11:20:08.870Z,9.03
2022-12-14T11:24:24.164Z,9.03
2022-12-14T11:28:37.102Z,8.33
2022-12-14T11:32:48.241Z,8.23
2022-12-14T11:36:55.099Z,9.00
2022-12-14T11:41:08.906Z,8.03
2022-12-14T11:45:26.883Z,7.60
2022-12-14T11:49:45.381Z,8.23
2022-12-14T11:54:02.808Z,8.03
2022-12-14T11:58:20.414Z,7.27
2022-12-14T12:02:39.461Z,7.40
2022-12-14T12:06:47.069Z,9.07
2022-12-14T12:11:01.805Z,8.70
2022-12-14T12:15:17.839Z,7.97
2022-12-14T12:19:35.914Z,8.77
2022-12-14T12:23:54.500Z,7.97
2022-12-14T12:28:17.178Z,8.87
2022-12-14T12:32:43.766Z,9.07
2022-12-14T12:37:25.996Z,9.82
2022-12-14T12:41:31.919Z,8.57
2022-12-14T12:45:47.667Z,8.23
2022-12-14T12:49:59.625Z,8.93
2022-12-14T12:54:11.877Z,9.63
2022-12-14T12:58:32.807Z,9.13
2022-12-14T13:02:49.805Z,9.27
2022-12-14T13:07:03.135Z,8.37
2022-12-14T13:11:26.775Z,8.88
2022-12-14T13:15:54.097Z,10.23
2022-12-14T13:20:04.271Z,9.20
2022-12-14T13:24:17.831Z,8.00
2022-12-14T13:28:32.827Z,7.30
2022-12-14T13:32:48.666Z,7.97
2022-12-14T13:37:15.971Z,8.53
2022-12-14T13:41:44.346Z,7.47
2022-12-14T13:45:51.559Z,6.97
2022-12-14T13:50:34.726Z,6.40
2022-12-14T13:54:37.756Z,7.32
2022-12-14T13:58:47.353Z,6.77
2022-12-14T14:02:54.156Z,8.43
2022-12-14T14:07:22.975Z,6.77
2022-12-14T14:11:37.790Z,5.77
2022-12-14T14:16:27.376Z,7.13
2022-12-14T14:20:37.304Z,6.77
2022-12-14T14:25:24.705Z,7.13
2022-12-14T14:29:32.355Z,7.43
2022-12-14T14:33:47.094Z,7.40
2022-12-14T14:38:02.520Z,7.20
2022-12-14T14:42:21.645Z,6.93
2022-12-14T14:46:42.366Z,6.57
2022-12-14T14:51:00.877Z,6.33
2022-12-14T14:55:52.151Z,7.07
2022-12-14T15:00:01.614Z,7.43
2022-12-14T15:04:21.666Z,6.72
2022-12-14T15:08:38.798Z,7.13
2022-12-14T15:12:54.702Z,6.63
2022-12-14T15:17:17.116Z,5.53
2022-12-14T15:21:23.869Z,7.85
2022-12-14T15:25:31.756Z,8.10
2022-12-14T15:29:38.694Z,8.33
2022-12-14T15:33:47.966Z,6.73
2022-12-14T15:38:00.151Z,6.93
2022-12-14T15:42:11.903Z,7.30
2022-12-14T15:46:30.412Z,7.33
2022-12-14T15:50:39.372Z,8.00
2022-12-14T15:54:46.590Z,13.77
2022-12-14T15:58:53.553Z,10.13
2022-12-14T16:03:03.459Z,8.90
2022-12-14T16:07:26.349Z,11.13
2022-12-14T16:15:43.385Z,8.87
2022-12-14T16:20:00.641Z,7.27
2022-12-14T16:24:24.200Z,8.43
2022-12-14T16:28:34.179Z,8.60
2022-12-14T16:32:42.312Z,8.23
2022-12-14T16:37:22.623Z,9.20
2022-12-14T16:41:16.451Z,10.23
2022-12-14T16:45:41.611Z,8.87
2022-12-14T16:49:48.290Z,8.80
2022-12-14T16:54:00.654Z,8.50
2022-12-14T16:58:17.710Z,8.23
2022-12-14T17:02:52.830Z,8.13
2022-12-14T17:06:59.742Z,8.20
2022-12-14T17:11:06.518Z,8.30
2022-12-14T17:15:14.904Z,7.97
2022-12-14T17:19:30.357Z,8.80
2022-12-14T17:23:40.028Z,8.77
2022-12-14T17:27:46.843Z,8.83
2022-12-14T17:32:01.028Z,10.67
2022-12-14T17:36:07.964Z,10.30
2022-12-14T17:40:14.840Z,12.13
2022-12-14T17:44:21.623Z,10.77
2022-12-14T17:48:28.713Z,9.27
2022-12-14T17:52:35.389Z,9.83
2022-12-14T17:56:43.125Z,9.37
2022-12-14T18:01:02.701Z,8.87
2022-12-14T18:05:17.540Z,6.47
2022-12-14T18:09:24.233Z,8.37
2022-12-14T18:13:31.733Z,8.97
2022-12-14T18:17:38.842Z,9.17
2022-12-14T18:21:45.517Z,8.03
2022-12-14T18:25:57.254Z,8.07
2022-12-14T18:30:04.353Z,9.77
2022-12-14T18:34:12.819Z,9.83
2022-12-14T18:38:20.157Z,8.70
2022-12-14T18:42:26.897Z,10.37
2022-12-14T18:46:33.656Z,10.63
2022-12-14T18:50:43.036Z,9.93
2022-12-14T18:54:51.828Z,10.33
2022-12-14T18:59:00.324Z,10.40
2022-12-14T19:03:07.189Z,9.20
2022-12-14T19:07:15.634Z,8.63
2022-12-14T19:11:32.922Z,8.83
2022-12-14T19:15:39.711Z,9.17
2022-12-14T19:19:46.428Z,9.87
2022-12-14T19:23:53.511Z,10.37
2022-12-14T19:28:26.102Z,9.20
2022-12-14T19:32:28.988Z,9.70
2022-12-14T19:36:35.644Z,8.93
2022-12-14T19:40:46.167Z,8.47
2022-12-14T19:44:52.856Z,9.13
2022-12-14T19:48:59.932Z,8.83
2022-12-14T19:53:06.745Z,8.67
2022-12-14T19:57:13.682Z,8.43
2022-12-14T20:01:20.891Z,8.50
2022-12-14T20:05:27.654Z,7.30
2022-12-14T20:09:35.347Z,7.77
2022-12-14T20:13:42.197Z,7.43
2022-12-14T20:17:48.861Z,7.63
2022-12-14T20:21:55.600Z,8.90
2022-12-14T20:26:10.710Z,6.93
2022-12-14T20:30:17.488Z,8.23
2022-12-14T20:34:24.300Z,10.10
2022-12-14T20:38:30.938Z,9.30
2022-12-14T20:42:37.810Z,8.10
2022-12-14T20:46:46.221Z,7.27
2022-12-14T20:50:56.320Z,9.33
2022-12-14T20:55:05.979Z,7.63
2022-12-14T20:59:12.676Z,8.60
2022-12-14T21:03:19.451Z,9.20
2022-12-14T21:07:26.674Z,8.60
2022-12-14T21:11:54.212Z,9.50
2022-12-14T21:16:01.218Z,8.80
2022-12-14T21:20:08.337Z,8.37
2022-12-14T21:24:31.036Z,8.63
2022-12-14T21:28:42.292Z,9.53
2022-12-14T21:32:49.300Z,9.10
2022-12-14T21:36:56.362Z,9.57
2022-12-14T21:41:22.512Z,10.70
2022-12-14T21:45:29.240Z,10.13
2022-12-14T21:49:37.436Z,9.87
2022-12-14T21:53:58.686Z,9.07
2022-12-14T21:58:17.358Z,9.47
2022-12-14T22:02:25.031Z,9.67
2022-12-14T22:06:33.202Z,8.13
2022-12-14T22:10:39.872Z,7.93
2022-12-14T22:14:47.978Z,9.40
2022-12-14T22:18:54.720Z,8.17
2022-12-14T22:23:01.361Z,8.43
2022-12-14T22:27:09.842Z,8.17
2022-12-14T22:31:16.843Z,8.07
2022-12-14T22:35:23.554Z,8.50
2022-12-14T22:39:30.213Z,7.50
2022-12-14T22:43:37.536Z,9.23
2022-12-14T22:47:44.348Z,7.43
2022-12-14T22:51:51.024Z,7.70
2022-12-14T22:56:03.304Z,7.10
2022-12-14T23:00:18.916Z,7.72
2022-12-14T23:04:25.700Z,8.10
2022-12-14T23:08:32.364Z,8.17
2022-12-14T23:12:57.877Z,6.43
2022-12-14T23:17:24.482Z,7.40
2022-12-14T23:21:49.727Z,6.33
2022-12-14T23:26:15.210Z,7.20
2022-12-14T23:30:40.794Z,6.63
2022-12-14T23:35:06.043Z,6.40
2022-12-14T23:39:31.580Z,7.03
2022-12-14T23:43:57.149Z,7.23
2022-12-14T23:48:22.648Z,6.97
2022-12-14T23:52:48.202Z,7.90
2022-12-14T23:57:13.654Z,7.57
